This is the latest recevied weather packets stored in our database for station/object IK1YPD-13. If no packets are shown the sender has not sent any weather packets the latest 10 day(s).
| Time | Temp. | Humidity | Pressure | Rain* | Wind** | Luminosity | Snow |
|---|---|---|---|---|---|---|---|
| 1777605798 | 8.33° C | 53% | 1020 hPa | - | - | - | - |
| 1777604898 | 8.33° C | 52% | 1020 hPa | - | - | - | - |
| 1777603998 | 7.78° C | 53% | 1020 hPa | - | - | - | - |
| 1777603097 | 7.78° C | 53% | 1020 hPa | - | - | - | - |
| 1777602197 | 8.33° C | 52% | 1020 hPa | - | - | - | - |
| 1777601297 | 8.33° C | 51% | 1020 hPa | - | - | - | - |
| 1777584196 | 15° C | 31% | 1018 hPa | - | - | - | - |
| 1777580596 | 16.11° C | 28% | 1018 hPa | - | - | - | - |
| 1777577896 | 16.67° C | 29% | 1017 hPa | - | - | - | - |
| 1777576996 | 15° C | 38% | 1017 hPa | - | - | - | - |
| 1777576096 | 15° C | 41% | 1017 hPa | - | - | - | - |
| 1777568895 | 20° C | 30% | 1016 hPa | - | - | - | - |
| 1777566195 | 20° C | 50% | 1016 hPa | - | - | - | - |
| 1777565295 | 20.56° C | 50% | 1015 hPa | - | - | - | - |
| 1777555394 | 19.44° C | 55% | 1016 hPa | - | - | - | - |
| 1777554494 | 20° C | 55% | 1016 hPa | - | - | - | - |
| 1777553594 | 19.44° C | 57% | 1017 hPa | - | - | - | - |
| 1777552694 | 20° C | 54% | 1017 hPa | - | - | - | - |
| 1777548193 | 20.56° C | 54% | 1017 hPa | - | - | - | - |
| 1777544593 | 20.56° C | 43% | 1016 hPa | - | - | - | - |
| 1777543693 | 20.56° C | 43% | 1016 hPa | - | - | - | - |
| 1777541893 | 20° C | 45% | 1016 hPa | - | - | - | - |
| 1777540992 | 21.11° C | 42% | 1016 hPa | - | - | - | - |
| 1777540092 | 21.67° C | 41% | 1016 hPa | - | - | - | - |
| 1777386478 | 18.89° C | 66% | 1011 hPa | - | - | - | - |
* Rain since midnight (hover to see other rain measurements)
** Current wind speed in m/s (hover to see current wind gust speed)